Pagrindinis puslapis
METAR-TAF:

METAR-TAF

Oro uostai :

Oro pajėgų bazė

Niederstetten, Vokietija

platuma: 49-24N, ilguma: 009-58E, Aukštis: 468 m

Dabartinis oras

Ataskaita buvo paskelbta 58 minutes, ne 23:20 UTC
Vėjas 6 kt iš Šiaurės/Šiaurės Rytų
Temperatūra 5°C
Drėgmė 56%
Slėgis 1018 hPa
Matomumas 10 km arba daugiau
Mažai debesys ne aukštis 12000 ft

METAR: ETHN 282320Z 02006KT 9999 FEW120 05/M03 Q1018 BLU+

Laikas: 01:18 (00:18 UTC)


TAF: trūkstamas

Orai ataskaitas ir orų prognozės (METAR, TAF).

turimą stotys yra geltonos ir raudonos taškus žemėlapyje.

Perkelti pele per norėdami pamatyti stoties vardą.

Tada spustelėkite, norėdami matyti oro stebėjimo ir prognozės.

Norėdami pakeisti žemėlapį: spustelėkite ant žalios mygtukų su juodo kryžiaus žemyn,; žalią mygtuką su brūkšneliu, jei norite nutolinti; arba žalių rodyklių gretimoms žemėlapius.


METAR-TAF: